createdAt,value
2022-09-12T00:01:31.179Z,8.13
2022-09-12T00:03:02.811Z,8.70
2022-09-12T00:04:34.551Z,8.67
2022-09-12T00:06:11.967Z,8.90
2022-09-12T00:07:43.620Z,7.80
2022-09-12T00:09:15.475Z,8.30
2022-09-12T00:10:47.108Z,8.27
2022-09-12T00:12:18.782Z,7.10
2022-09-12T00:13:50.491Z,7.57
2022-09-12T00:15:22.295Z,8.17
2022-09-12T00:16:58.553Z,8.00
2022-09-12T00:18:30.395Z,8.10
2022-09-12T00:20:02.740Z,8.00
2022-09-12T00:21:35.920Z,8.10
2022-09-12T00:23:07.628Z,7.93
2022-09-12T00:24:40.781Z,7.33
2022-09-12T00:26:13.129Z,7.27
2022-09-12T00:27:44.760Z,7.23
2022-09-12T00:29:18.684Z,7.70
2022-09-12T00:30:50.311Z,7.80
2022-09-12T00:32:22.212Z,6.93
2022-09-12T00:33:56.817Z,7.03
2022-09-12T00:35:28.455Z,7.00
2022-09-12T00:37:00.100Z,7.53
2022-09-12T00:38:31.836Z,7.10
2022-09-12T00:40:03.937Z,7.47
2022-09-12T00:41:38.603Z,7.20
2022-09-12T00:43:30.103Z,7.33
2022-09-12T00:45:01.790Z,6.50
2022-09-12T00:47:02.347Z,7.40
2022-09-12T00:48:50.267Z,6.20
2022-09-12T00:50:21.959Z,6.60
2022-09-12T00:52:01.227Z,6.70
2022-09-12T00:53:32.908Z,6.70
2022-09-12T00:55:24.788Z,7.93
2022-09-12T00:57:01.308Z,6.20
2022-09-12T00:58:40.632Z,6.30
2022-09-12T01:00:15.654Z,6.73
2022-09-12T01:01:49.750Z,6.33
2022-09-12T01:03:23.700Z,6.33
2022-09-12T01:04:55.834Z,7.13
2022-09-12T01:06:41.328Z,7.00
2022-09-12T01:08:13.266Z,7.00
2022-09-12T01:09:45.528Z,6.90
2022-09-12T01:11:19.453Z,5.80
2022-09-12T01:12:51.200Z,6.30
2022-09-12T01:14:22.898Z,6.70
2022-09-12T01:15:55.740Z,6.03
2022-09-12T01:17:38.838Z,7.50
2022-09-12T01:19:37.923Z,6.80
2022-09-12T01:21:23.705Z,7.17
2022-09-12T01:23:37.640Z,6.70
2022-09-12T01:25:38.213Z,7.23
2022-09-12T01:27:32.922Z,7.40
2022-09-12T01:29:37.281Z,7.47
2022-09-12T01:31:20.278Z,6.97
2022-09-12T01:33:32.477Z,6.77
2022-09-12T01:35:16.664Z,6.90
2022-09-12T01:37:25.077Z,6.73
2022-09-12T01:39:00.434Z,7.03
2022-09-12T01:40:44.094Z,6.50
2022-09-12T01:42:27.864Z,6.77
2022-09-12T01:44:24.008Z,6.77
2022-09-12T01:46:17.678Z,6.77
2022-09-12T01:47:51.169Z,6.90
2022-09-12T01:49:32.842Z,6.53
2022-09-12T01:51:15.345Z,6.40
2022-09-12T01:52:50.030Z,6.60
2022-09-12T01:54:29.749Z,6.87
2022-09-12T01:56:11.421Z,6.73
2022-09-12T01:58:00.462Z,6.80
2022-09-12T01:59:45.391Z,6.80
2022-09-12T02:01:24.366Z,6.57
2022-09-12T02:03:03.871Z,7.10
2022-09-12T02:05:00.317Z,7.07
2022-09-12T02:06:38.428Z,6.90
2022-09-12T02:08:17.083Z,7.10
2022-09-12T02:10:06.091Z,7.00
2022-09-12T02:11:43.361Z,6.00
2022-09-12T02:13:21.774Z,6.80
2022-09-12T02:14:58.903Z,6.97
2022-09-12T02:16:44.983Z,7.30
2022-09-12T02:18:18.432Z,6.73
2022-09-12T02:19:56.659Z,7.33
2022-09-12T02:21:32.796Z,7.07
2022-09-12T02:23:09.431Z,7.33
2022-09-12T02:24:45.898Z,7.07
2022-09-12T02:26:22.830Z,7.73
2022-09-12T02:28:09.262Z,8.00
2022-09-12T02:29:41.922Z,8.10
2022-09-12T02:31:16.914Z,9.07
2022-09-12T02:33:01.235Z,8.20
2022-09-12T02:34:50.619Z,7.90
2022-09-12T02:37:05.685Z,8.10
2022-09-12T02:38:48.476Z,7.93
2022-09-12T02:40:20.427Z,8.30
2022-09-12T02:41:54.748Z,8.70
2022-09-12T02:43:26.460Z,8.27
2022-09-12T02:44:58.387Z,8.03
2022-09-12T02:46:41.048Z,8.93
2022-09-12T02:48:24.063Z,8.70
2022-09-12T02:49:56.916Z,8.53
2022-09-12T02:51:28.829Z,8.33
2022-09-12T02:53:04.651Z,8.70
2022-09-12T02:54:38.076Z,8.30
2022-09-12T02:56:15.819Z,9.87
2022-09-12T02:57:47.452Z,8.10
2022-09-12T02:59:22.768Z,8.40
2022-09-12T03:01:26.287Z,7.80
2022-09-12T03:03:14.740Z,8.40
2022-09-12T03:05:12.888Z,7.87
2022-09-12T03:07:05.126Z,7.47
2022-09-12T03:08:50.883Z,8.80
2022-09-12T03:10:44.448Z,8.87
2022-09-12T03:12:25.702Z,8.83
2022-09-12T03:14:12.447Z,9.37
2022-09-12T03:16:11.197Z,10.00
2022-09-12T03:18:01.250Z,8.70
2022-09-12T03:19:49.273Z,8.40
2022-09-12T03:21:37.018Z,9.70
2022-09-12T03:23:31.299Z,9.40
2022-09-12T03:25:22.914Z,10.10
2022-09-12T03:27:11.062Z,9.37
2022-09-12T03:28:45.338Z,9.77
2022-09-12T03:30:17.210Z,9.37
2022-09-12T03:31:51.910Z,9.60
2022-09-12T03:33:25.922Z,8.83
2022-09-12T03:34:57.764Z,9.10
2022-09-12T03:36:30.338Z,10.50
2022-09-12T03:38:02.038Z,9.50
2022-09-12T03:39:33.878Z,11.00
2022-09-12T03:41:05.691Z,10.20
2022-09-12T03:42:38.259Z,10.47
2022-09-12T03:44:10.026Z,10.70
2022-09-12T03:45:41.880Z,12.03
2022-09-12T03:47:13.551Z,11.00
2022-09-12T03:48:45.294Z,10.93
2022-09-12T03:50:17.228Z,10.40
2022-09-12T03:51:48.824Z,10.37
2022-09-12T03:53:20.452Z,10.80
2022-09-12T03:54:52.195Z,11.17
2022-09-12T03:56:23.987Z,11.43
2022-09-12T03:57:55.992Z,11.90
2022-09-12T03:59:27.615Z,12.50
2022-09-12T04:00:59.728Z,12.50
2022-09-12T04:02:31.434Z,12.83
2022-09-12T04:04:03.267Z,12.83
2022-09-12T04:05:35.917Z,11.67
2022-09-12T04:07:07.497Z,13.27
2022-09-12T04:08:39.238Z,12.40
2022-09-12T04:10:10.940Z,13.07
2022-09-12T04:11:42.582Z,13.10
2022-09-12T04:13:14.277Z,12.07
2022-09-12T04:14:46.273Z,12.03
2022-09-12T04:16:18.608Z,12.20
2022-09-12T04:17:50.360Z,12.80
2022-09-12T04:19:21.993Z,13.10
2022-09-12T04:20:53.777Z,12.60
2022-09-12T04:22:25.425Z,12.97
2022-09-12T04:23:57.075Z,13.33
2022-09-12T04:25:32.102Z,13.33
2022-09-12T04:27:07.705Z,13.03
2022-09-12T04:28:40.581Z,12.80
2022-09-12T04:30:13.108Z,13.00
2022-09-12T04:31:44.850Z,13.80
2022-09-12T04:33:16.878Z,13.53
2022-09-12T04:34:49.041Z,14.33
2022-09-12T04:36:20.730Z,12.80
2022-09-12T04:37:52.505Z,13.90
2022-09-12T04:39:24.341Z,14.70
2022-09-12T04:40:56.994Z,15.30
2022-09-12T04:42:29.753Z,13.50
2022-09-12T04:44:04.281Z,14.43
2022-09-12T04:45:36.039Z,14.93
2022-09-12T04:47:07.885Z,14.70
2022-09-12T04:48:39.536Z,14.20
2022-09-12T04:50:11.165Z,14.47
2022-09-12T04:51:43.254Z,14.90
2022-09-12T04:53:14.892Z,14.33
2022-09-12T04:54:46.526Z,14.90
2022-09-12T04:56:19.556Z,16.63
2022-09-12T04:57:51.928Z,15.50
2022-09-12T04:59:24.408Z,16.43
2022-09-12T05:00:56.067Z,15.67
2022-09-12T05:02:28.933Z,16.07
2022-09-12T05:04:00.800Z,16.73
2022-09-12T05:05:32.427Z,15.70
2022-09-12T05:07:04.479Z,15.53
2022-09-12T05:08:36.467Z,15.73
2022-09-12T05:10:09.064Z,15.83
2022-09-12T05:13:34.978Z,15.40
2022-09-12T05:15:07.311Z,15.90
2022-09-12T05:16:39.040Z,15.90
2022-09-12T05:18:10.653Z,16.00
2022-09-12T05:19:42.378Z,16.00
2022-09-12T05:21:17.265Z,15.43
2022-09-12T05:22:48.928Z,15.10
2022-09-12T05:24:20.616Z,17.40
2022-09-12T05:25:53.246Z,15.83
2022-09-12T05:27:24.891Z,15.93
2022-09-12T05:28:56.864Z,16.77
2022-09-12T05:30:28.512Z,15.90
2022-09-12T05:32:00.184Z,16.70
2022-09-12T05:33:33.314Z,16.67
2022-09-12T05:35:05.214Z,18.07
2022-09-12T05:36:37.252Z,17.50
2022-09-12T05:38:08.901Z,17.50
2022-09-12T05:39:41.106Z,18.23
2022-09-12T05:41:24.990Z,18.30
2022-09-12T05:42:57.553Z,18.13
2022-09-12T05:44:29.283Z,18.90
2022-09-12T05:46:08.982Z,18.63
2022-09-12T05:47:41.832Z,18.40
2022-09-12T05:49:14.494Z,20.50
2022-09-12T05:50:46.185Z,20.90
2022-09-12T05:52:17.837Z,19.37
2022-09-12T05:53:52.646Z,19.83
2022-09-12T05:55:24.532Z,20.70
2022-09-12T05:56:56.869Z,19.73
2022-09-12T05:58:28.715Z,20.27
2022-09-12T06:00:01.096Z,20.97
2022-09-12T06:01:34.997Z,20.63
2022-09-12T06:03:06.710Z,20.60
2022-09-12T06:04:40.822Z,20.40
2022-09-12T06:06:13.840Z,20.27
2022-09-12T06:07:48.457Z,21.80
2022-09-12T06:09:20.561Z,20.13
2022-09-12T06:11:01.695Z,20.60
2022-09-12T06:12:33.969Z,20.90
2022-09-12T06:14:05.605Z,20.47
2022-09-12T06:15:37.645Z,21.10
2022-09-12T06:17:09.301Z,19.80
2022-09-12T06:18:42.075Z,21.97
2022-09-12T06:20:13.853Z,20.40
2022-09-12T06:21:47.470Z,21.73
2022-09-12T06:23:19.120Z,20.23
2022-09-12T06:24:52.792Z,20.77
2022-09-12T06:26:29.108Z,21.33
2022-09-12T06:28:01.095Z,21.17
2022-09-12T06:29:32.683Z,21.30
2022-09-12T06:31:10.862Z,22.10
2022-09-12T06:32:42.891Z,19.60
2022-09-12T06:34:16.517Z,20.77
2022-09-12T06:35:48.284Z,21.37
2022-09-12T06:37:19.915Z,21.53
2022-09-12T06:38:57.067Z,20.60
2022-09-12T06:40:29.627Z,21.43
2022-09-12T06:42:01.262Z,22.70
2022-09-12T06:43:40.347Z,20.53
2022-09-12T06:45:11.991Z,22.57
2022-09-12T06:46:44.383Z,21.10
2022-09-12T06:48:16.423Z,20.80
2022-09-12T06:49:48.015Z,20.57
2022-09-12T06:51:20.426Z,21.30
2022-09-12T06:52:52.088Z,21.17
2022-09-12T06:54:23.878Z,22.40
2022-09-12T06:56:00.505Z,21.87
2022-09-12T06:57:36.203Z,22.33
2022-09-12T06:59:07.858Z,22.00
2022-09-12T07:00:39.991Z,20.13
2022-09-12T07:02:12.328Z,21.50
2022-09-12T07:03:48.858Z,21.67
2022-09-12T07:05:20.431Z,21.50
2022-09-12T07:06:52.131Z,22.57
2022-09-12T07:08:23.918Z,22.63
2022-09-12T07:09:57.542Z,20.10
2022-09-12T07:11:34.783Z,21.27
2022-09-12T07:13:06.421Z,21.67
2022-09-12T07:14:38.063Z,22.47
2022-09-12T07:16:10.480Z,21.47
2022-09-12T07:17:42.097Z,21.50
2022-09-12T07:19:13.738Z,21.03
2022-09-12T07:20:45.345Z,22.30
2022-09-12T07:22:16.989Z,22.20
2022-09-12T07:23:49.125Z,22.17
2022-09-12T07:25:20.732Z,23.40
2022-09-12T07:26:52.511Z,21.70
2022-09-12T07:28:25.423Z,21.30
2022-09-12T07:29:57.079Z,22.50
2022-09-12T07:31:29.501Z,22.67
2022-09-12T07:33:01.147Z,22.73
2022-09-12T07:34:33.395Z,22.17
2022-09-12T07:36:08.603Z,22.10
2022-09-12T07:37:40.201Z,22.17
2022-09-12T07:39:12.193Z,22.70
2022-09-12T07:40:43.981Z,22.23
2022-09-12T07:42:15.612Z,21.27
2022-09-12T07:43:48.362Z,22.83
2022-09-12T07:45:19.975Z,22.17
2022-09-12T07:46:52.214Z,22.40
2022-09-12T07:48:24.671Z,23.67
2022-09-12T07:49:56.813Z,22.70
2022-09-12T07:51:30.741Z,23.20
2022-09-12T07:53:03.827Z,22.70
2022-09-12T07:54:35.549Z,24.03
2022-09-12T07:56:10.153Z,23.10
2022-09-12T07:57:42.001Z,22.77
2022-09-12T07:59:13.633Z,22.80
2022-09-12T08:00:45.855Z,22.93
2022-09-12T08:02:17.895Z,23.90
2022-09-12T08:03:53.510Z,23.57
2022-09-12T08:05:25.483Z,23.90
2022-09-12T08:06:57.088Z,22.80
2022-09-12T08:08:29.385Z,23.83
2022-09-12T08:10:01.329Z,23.10
2022-09-12T08:11:32.995Z,24.33
2022-09-12T08:13:04.707Z,24.80
2022-09-12T08:14:36.360Z,23.60
2022-09-12T08:16:18.435Z,24.10
2022-09-12T08:17:50.224Z,24.20
2022-09-12T08:19:22.675Z,23.40
2022-09-12T08:21:05.885Z,24.00
2022-09-12T08:22:37.859Z,24.90
2022-09-12T08:24:12.353Z,23.70
2022-09-12T08:25:44.023Z,25.13
2022-09-12T08:27:16.589Z,23.90
2022-09-12T08:28:49.100Z,23.10
2022-09-12T08:30:20.821Z,23.60
2022-09-12T08:31:57.036Z,25.03
2022-09-12T08:33:35.948Z,24.03
2022-09-12T08:35:08.000Z,24.33
2022-09-12T08:36:40.873Z,22.87
2022-09-12T08:38:12.685Z,22.70
2022-09-12T08:39:44.458Z,24.37
2022-09-12T08:41:24.164Z,24.47
2022-09-12T08:43:07.945Z,22.97
2022-09-12T08:45:21.903Z,23.03
2022-09-12T08:47:10.854Z,22.97
2022-09-12T08:48:45.394Z,23.40
2022-09-12T08:50:20.460Z,24.53
2022-09-12T08:51:52.994Z,23.90
2022-09-12T08:53:28.118Z,24.20
2022-09-12T08:55:01.825Z,23.80
2022-09-12T08:56:37.533Z,23.63
2022-09-12T08:58:20.032Z,22.93
2022-09-12T08:59:52.867Z,23.40
2022-09-12T09:01:31.834Z,23.73
2022-09-12T09:03:36.818Z,23.80
2022-09-12T09:05:50.232Z,24.43
2022-09-12T09:07:34.046Z,23.17
2022-09-12T09:09:29.297Z,23.00
2022-09-12T09:11:13.265Z,24.10
2022-09-12T09:13:06.716Z,23.87
2022-09-12T09:15:03.283Z,24.13
2022-09-12T09:16:44.117Z,24.13
2022-09-12T09:18:23.624Z,21.40
2022-09-12T09:20:22.724Z,23.20
2022-09-12T09:22:06.293Z,23.60
2022-09-12T09:23:44.499Z,24.80
2022-09-12T09:25:22.992Z,23.30
2022-09-12T09:27:02.603Z,24.00
2022-09-12T09:28:37.437Z,22.40
2022-09-12T09:30:21.526Z,24.40
2022-09-12T09:31:57.580Z,22.47
2022-09-12T09:33:34.869Z,23.70
2022-09-12T09:35:39.118Z,22.07
2022-09-12T09:37:19.772Z,21.40
2022-09-12T09:39:04.114Z,23.03
2022-09-12T09:40:51.100Z,21.57
2022-09-12T09:42:44.528Z,23.97
2022-09-12T09:44:17.101Z,21.67
2022-09-12T09:45:49.871Z,21.63
2022-09-12T09:47:22.021Z,21.80
2022-09-12T09:48:54.901Z,22.57
2022-09-12T09:50:27.228Z,21.40
2022-09-12T09:52:00.977Z,21.83
2022-09-12T09:53:40.283Z,20.73
2022-09-12T09:55:23.220Z,20.20
2022-09-12T09:56:56.336Z,20.60
2022-09-12T09:58:32.907Z,19.67
2022-09-12T10:00:26.589Z,18.60
2022-09-12T10:02:24.093Z,19.20
2022-09-12T10:03:56.533Z,18.80
2022-09-12T10:05:28.792Z,19.50
2022-09-12T10:07:02.435Z,20.60
2022-09-12T10:08:36.470Z,19.33
2022-09-12T10:10:15.783Z,17.30
2022-09-12T10:11:48.781Z,16.80
2022-09-12T10:13:47.871Z,16.10
2022-09-12T10:15:27.884Z,15.83
2022-09-12T10:16:59.537Z,14.57
2022-09-12T10:18:42.376Z,14.60
2022-09-12T10:20:43.852Z,16.00
2022-09-12T10:22:23.403Z,14.43
2022-09-12T10:24:03.177Z,14.40
2022-09-12T10:25:34.849Z,14.33
2022-09-12T10:27:12.104Z,15.17
2022-09-12T10:28:53.960Z,14.70
2022-09-12T10:30:28.449Z,14.03
2022-09-12T10:32:04.793Z,9.20
2022-09-12T10:33:53.142Z,7.97
2022-09-12T10:35:30.878Z,7.47
2022-09-12T10:37:10.982Z,7.03
2022-09-12T10:38:51.017Z,6.70
2022-09-12T10:40:37.146Z,8.30
2022-09-12T10:42:14.843Z,6.93
2022-09-12T10:43:46.688Z,7.37
2022-09-12T10:45:26.260Z,6.90
2022-09-12T10:46:59.498Z,5.90
2022-09-12T10:48:32.688Z,5.70
2022-09-12T10:50:28.226Z,5.43
2022-09-12T10:52:23.495Z,5.47
2022-09-12T10:54:01.921Z,5.80
2022-09-12T10:55:35.567Z,6.70
2022-09-12T10:57:21.668Z,6.10
2022-09-12T10:59:31.138Z,6.33
2022-09-12T11:01:16.049Z,5.80
2022-09-12T11:03:30.386Z,6.27
2022-09-12T11:05:43.546Z,5.77
2022-09-12T11:07:31.100Z,5.80
2022-09-12T11:09:12.910Z,5.67
2022-09-12T11:10:47.274Z,5.10
2022-09-12T11:12:53.255Z,4.53
2022-09-12T11:14:52.499Z,4.70
2022-09-12T11:16:46.050Z,5.00
2022-09-12T11:18:31.354Z,5.20
2022-09-12T11:20:17.578Z,5.10
2022-09-12T11:22:14.868Z,5.10
2022-09-12T11:24:04.174Z,5.17
2022-09-12T11:25:52.928Z,4.80
2022-09-12T11:27:54.092Z,4.57
2022-09-12T11:29:48.633Z,4.40
2022-09-12T11:31:40.217Z,5.03
2022-09-12T11:33:45.093Z,4.67
2022-09-12T11:35:24.437Z,4.43
2022-09-12T11:37:18.058Z,4.60
2022-09-12T11:39:13.304Z,4.00
2022-09-12T11:41:09.912Z,3.63
2022-09-12T11:42:42.163Z,3.73
2022-09-12T11:44:25.411Z,3.30
2022-09-12T11:46:04.209Z,3.60
2022-09-12T11:47:37.219Z,3.73
2022-09-12T11:49:15.579Z,3.57
2022-09-12T11:50:47.217Z,3.23
2022-09-12T11:52:29.724Z,3.50
2022-09-12T11:54:32.627Z,3.10
2022-09-12T11:56:16.877Z,3.33
2022-09-12T11:57:50.444Z,3.50
2022-09-12T11:59:37.276Z,3.53
2022-09-12T12:01:19.083Z,3.50
2022-09-12T12:03:10.175Z,3.60
2022-09-12T12:05:14.130Z,3.83
2022-09-12T12:07:11.889Z,4.20
2022-09-12T12:08:46.082Z,3.20
2022-09-12T12:10:45.584Z,3.70
2022-09-12T12:12:24.132Z,3.60
2022-09-12T12:14:13.906Z,3.90
2022-09-12T12:15:49.740Z,3.67
2022-09-12T12:17:24.044Z,3.47
2022-09-12T12:19:01.580Z,3.60
2022-09-12T12:20:35.543Z,3.97
2022-09-12T12:22:28.605Z,3.70
2022-09-12T12:24:09.252Z,4.17
2022-09-12T12:25:52.866Z,3.80
2022-09-12T12:27:44.748Z,3.60
2022-09-12T12:29:16.356Z,3.03
2022-09-12T12:30:54.057Z,3.20
2022-09-12T12:32:26.294Z,3.10
2022-09-12T12:34:04.519Z,2.90
2022-09-12T12:35:39.165Z,2.70
2022-09-12T12:37:22.407Z,3.10
2022-09-12T12:38:54.120Z,3.13
2022-09-12T12:40:27.766Z,3.10
2022-09-12T12:42:00.596Z,2.60
2022-09-12T12:43:32.335Z,2.90
2022-09-12T12:45:29.772Z,2.70
2022-09-12T12:47:22.456Z,2.80
2022-09-12T12:48:59.865Z,2.70
2022-09-12T12:50:32.247Z,2.50
2022-09-12T12:52:03.931Z,2.40
2022-09-12T12:53:35.883Z,2.80
2022-09-12T12:55:15.724Z,2.87
2022-09-12T12:56:47.357Z,2.23
2022-09-12T12:58:40.521Z,2.80
2022-09-12T13:00:36.388Z,2.73
2022-09-12T13:02:21.709Z,2.70
2022-09-12T13:03:55.649Z,2.90
2022-09-12T13:05:30.467Z,3.07
2022-09-12T13:07:08.765Z,2.60
2022-09-12T13:09:04.063Z,2.80
2022-09-12T13:10:36.780Z,2.60
2022-09-12T13:12:23.580Z,2.43
2022-09-12T13:14:02.374Z,2.70
2022-09-12T13:15:37.174Z,2.50
2022-09-12T13:17:26.559Z,2.50
2022-09-12T13:19:06.751Z,2.90
2022-09-12T13:20:49.668Z,2.77
2022-09-12T13:22:24.481Z,2.50
2022-09-12T13:24:25.794Z,3.17
2022-09-12T13:26:00.415Z,2.70
2022-09-12T13:27:32.052Z,3.27
2022-09-12T13:29:18.505Z,2.63
2022-09-12T13:30:58.868Z,2.63
2022-09-12T13:32:30.655Z,2.87
2022-09-12T13:34:06.281Z,2.87
2022-09-12T13:35:49.126Z,3.10
2022-09-12T13:37:48.603Z,3.00
2022-09-12T13:39:35.562Z,2.80
2022-09-12T13:41:23.336Z,3.20
2022-09-12T13:43:15.206Z,3.37
2022-09-12T13:45:02.697Z,3.20
2022-09-12T13:46:34.763Z,3.30
2022-09-12T13:48:14.006Z,3.40
2022-09-12T13:49:46.910Z,3.40
2022-09-12T13:51:25.189Z,3.30
2022-09-12T13:53:00.190Z,2.83
2022-09-12T13:54:33.393Z,3.47
2022-09-12T13:56:05.133Z,3.37
2022-09-12T13:57:38.965Z,3.03
2022-09-12T13:59:13.233Z,3.30
2022-09-12T14:00:45.013Z,3.13
2022-09-12T14:02:21.933Z,3.13
2022-09-12T14:04:14.146Z,3.53
2022-09-12T14:05:55.459Z,3.77
2022-09-12T14:07:27.141Z,3.30
2022-09-12T14:09:01.186Z,3.40
2022-09-12T14:10:39.224Z,3.30
2022-09-12T14:12:34.752Z,3.37
2022-09-12T14:14:17.940Z,3.60
2022-09-12T14:15:54.932Z,3.33
2022-09-12T14:17:36.113Z,3.77
2022-09-12T14:19:10.100Z,3.20
2022-09-12T14:20:42.628Z,3.40
2022-09-12T14:22:18.026Z,3.50
2022-09-12T14:23:49.959Z,3.27
2022-09-12T14:25:25.055Z,3.03
2022-09-12T14:26:56.910Z,3.50
2022-09-12T14:28:30.114Z,2.97
2022-09-12T14:30:18.868Z,3.40
2022-09-12T14:32:02.470Z,2.93
2022-09-12T14:33:55.539Z,3.33
2022-09-12T14:35:27.212Z,3.33
2022-09-12T14:36:59.335Z,3.33
2022-09-12T14:38:42.823Z,3.00
2022-09-12T14:40:24.229Z,3.10
2022-09-12T14:42:17.460Z,3.30
2022-09-12T14:43:53.351Z,2.90
2022-09-12T14:45:31.189Z,3.13
2022-09-12T14:47:22.771Z,2.77
2022-09-12T14:49:08.133Z,3.00
2022-09-12T14:50:39.861Z,2.97
2022-09-12T14:52:23.417Z,2.63
2022-09-12T14:53:55.188Z,3.13
2022-09-12T14:55:32.500Z,2.90
2022-09-12T14:57:38.690Z,2.93
2022-09-12T14:59:33.293Z,3.07
2022-09-12T15:01:08.214Z,2.60
2022-09-12T15:02:42.242Z,3.40
2022-09-12T15:04:43.925Z,3.20
2022-09-12T15:06:30.066Z,2.90
2022-09-12T15:08:02.520Z,2.80
2022-09-12T15:09:34.482Z,3.10
2022-09-12T15:11:07.418Z,3.00
2022-09-12T15:12:39.029Z,2.70
2022-09-12T15:14:14.474Z,2.90
2022-09-12T15:15:49.641Z,3.20
2022-09-12T15:17:21.387Z,2.90
2022-09-12T15:18:52.977Z,3.00
2022-09-12T15:20:25.036Z,2.90
2022-09-12T15:21:57.441Z,3.10
2022-09-12T15:23:40.610Z,2.90
2022-09-12T15:25:13.306Z,3.00
2022-09-12T15:26:44.900Z,2.87
2022-09-12T15:28:22.029Z,2.87
2022-09-12T15:29:54.131Z,3.20
2022-09-12T15:31:28.625Z,2.90
2022-09-12T15:33:00.281Z,3.07
2022-09-12T15:34:32.664Z,3.33
2022-09-12T15:36:09.181Z,2.93
2022-09-12T15:37:40.900Z,2.93
2022-09-12T15:39:13.210Z,2.90
2022-09-12T15:40:51.021Z,3.03
2022-09-12T15:42:29.021Z,3.33
2022-09-12T15:44:01.100Z,3.00
2022-09-12T15:45:35.191Z,3.37
2022-09-12T15:47:08.526Z,3.10
2022-09-12T15:48:40.524Z,3.03
2022-09-12T15:50:12.658Z,2.97
2022-09-12T15:51:44.332Z,2.97
2022-09-12T15:53:17.719Z,2.70
2022-09-12T15:54:49.337Z,2.90
2022-09-12T15:56:23.030Z,2.73
2022-09-12T15:57:55.555Z,2.87
2022-09-12T15:59:27.231Z,2.70
2022-09-12T16:00:59.226Z,3.40
2022-09-12T16:02:30.906Z,3.20
2022-09-12T16:04:03.472Z,3.10
2022-09-12T16:05:35.371Z,2.73
2022-09-12T16:07:06.983Z,2.73
2022-09-12T16:08:38.679Z,3.10
2022-09-12T16:10:18.252Z,3.30
2022-09-12T16:11:50.208Z,3.00
2022-09-12T16:13:23.059Z,2.70
2022-09-12T16:14:54.716Z,3.33
2022-09-12T16:16:26.493Z,2.73
2022-09-12T16:17:58.276Z,2.40
2022-09-12T16:19:29.924Z,2.70
2022-09-12T16:21:01.546Z,2.90
2022-09-12T16:22:33.169Z,2.93
2022-09-12T16:24:05.223Z,2.60
2022-09-12T16:25:38.611Z,3.00
2022-09-12T16:27:10.291Z,3.17
2022-09-12T16:28:42.092Z,3.10
2022-09-12T16:30:13.787Z,2.97
2022-09-12T16:31:45.427Z,2.87
2022-09-12T16:33:17.059Z,2.83
2022-09-12T16:34:50.616Z,2.53
2022-09-12T16:36:22.670Z,2.97
2022-09-12T16:37:55.529Z,3.80
2022-09-12T16:39:27.164Z,3.10
2022-09-12T16:41:03.180Z,3.00
2022-09-12T16:42:35.651Z,2.73
2022-09-12T16:44:07.920Z,3.00
2022-09-12T16:45:39.723Z,2.63
2022-09-12T16:47:11.737Z,3.07
2022-09-12T16:48:52.073Z,3.47
2022-09-12T16:50:24.801Z,3.30
2022-09-12T16:51:56.417Z,3.60
2022-09-12T16:53:32.840Z,3.10
2022-09-12T16:55:04.928Z,3.37
2022-09-12T16:56:36.628Z,3.10
2022-09-12T16:58:08.253Z,3.33
2022-09-12T16:59:39.959Z,3.40
2022-09-12T17:01:20.481Z,4.67
2022-09-12T17:02:52.555Z,3.50
2022-09-12T17:04:24.495Z,4.07
2022-09-12T17:06:04.638Z,3.50
2022-09-12T17:07:36.431Z,4.00
2022-09-12T17:09:08.060Z,3.70
2022-09-12T17:10:41.033Z,3.50
2022-09-12T17:12:12.715Z,3.20
2022-09-12T17:14:04.547Z,3.97
2022-09-12T17:15:38.509Z,3.30
2022-09-12T17:17:10.160Z,3.73
2022-09-12T17:18:41.944Z,3.87
2022-09-12T17:20:13.622Z,3.17
2022-09-12T17:21:47.488Z,3.50
2022-09-12T17:23:19.126Z,3.70
2022-09-12T17:24:50.789Z,3.60
2022-09-12T17:26:22.637Z,3.40
2022-09-12T17:27:54.283Z,3.87
2022-09-12T17:29:25.996Z,3.87
2022-09-12T17:30:59.414Z,4.23
2022-09-12T17:32:31.059Z,4.10
2022-09-12T17:34:03.394Z,4.40
2022-09-12T17:35:35.873Z,4.03
2022-09-12T17:37:07.500Z,4.37
2022-09-12T17:38:39.861Z,4.03
2022-09-12T17:40:12.081Z,4.13
2022-09-12T17:41:45.655Z,5.27
2022-09-12T17:43:17.317Z,5.27
2022-09-12T17:44:50.368Z,6.00
2022-09-12T17:46:23.976Z,5.57
2022-09-12T17:47:55.720Z,5.20
2022-09-12T17:49:28.177Z,6.23
2022-09-12T17:51:13.436Z,6.27
2022-09-12T17:52:45.552Z,5.50
2022-09-12T17:54:18.861Z,5.30
2022-09-12T17:55:54.239Z,5.33
2022-09-12T17:57:26.156Z,5.90
2022-09-12T17:58:59.244Z,5.90
2022-09-12T18:00:49.923Z,7.07
2022-09-12T18:02:21.630Z,6.70
2022-09-12T18:03:55.494Z,7.70
2022-09-12T18:05:27.148Z,7.87
2022-09-12T18:07:00.235Z,8.20
2022-09-12T18:08:31.947Z,7.93
2022-09-12T18:10:03.836Z,6.77
2022-09-12T18:11:36.073Z,7.10
2022-09-12T18:13:07.793Z,6.50
2022-09-12T18:14:39.816Z,5.60
2022-09-12T18:16:13.198Z,5.20
2022-09-12T18:17:44.852Z,5.10
2022-09-12T18:19:17.548Z,5.10
2022-09-12T18:20:52.425Z,4.77
2022-09-12T18:22:24.084Z,5.23
2022-09-12T18:23:58.836Z,4.20
2022-09-12T18:25:30.472Z,5.67
2022-09-12T18:27:03.810Z,4.83
2022-09-12T18:28:38.215Z,4.80
2022-09-12T18:30:20.971Z,4.93
2022-09-12T18:31:53.539Z,4.80
2022-09-12T18:33:25.280Z,5.30
2022-09-12T18:34:56.877Z,4.60
2022-09-12T18:36:29.866Z,4.60
2022-09-12T18:38:01.478Z,4.87
2022-09-12T18:39:33.176Z,4.57
2022-09-12T18:41:13.303Z,4.57
2022-09-12T18:42:44.931Z,4.70
2022-09-12T18:44:16.856Z,4.33
2022-09-12T18:45:48.487Z,4.47
2022-09-12T18:47:20.121Z,5.20
2022-09-12T18:48:52.140Z,4.90
2022-09-12T18:50:24.521Z,4.70
2022-09-12T18:51:56.173Z,4.97
2022-09-12T18:53:27.788Z,4.20
2022-09-12T18:54:59.417Z,4.53
2022-09-12T18:56:32.917Z,4.70
2022-09-12T18:58:04.701Z,4.60
2022-09-12T18:59:36.336Z,5.00
2022-09-12T19:01:17.474Z,4.40
2022-09-12T19:02:49.142Z,4.50
2022-09-12T19:04:20.865Z,5.20
2022-09-12T19:05:53.173Z,5.20
2022-09-12T19:07:24.845Z,5.30
2022-09-12T19:08:57.692Z,5.83
2022-09-12T19:10:29.485Z,5.20
2022-09-12T19:12:01.298Z,5.30
2022-09-12T19:13:36.187Z,6.17
2022-09-12T19:15:09.702Z,6.20
2022-09-12T19:16:41.653Z,6.93
2022-09-12T19:18:13.277Z,6.80
2022-09-12T19:19:45.980Z,6.53
2022-09-12T19:21:22.077Z,6.90
2022-09-12T19:22:53.696Z,6.77
2022-09-12T19:24:25.468Z,6.63
2022-09-12T19:26:05.412Z,6.40
2022-09-12T19:27:37.826Z,6.20
2022-09-12T19:29:11.535Z,6.73
2022-09-12T19:30:53.422Z,7.40
2022-09-12T19:32:25.069Z,6.60
2022-09-12T19:34:01.183Z,6.90
2022-09-12T19:35:33.470Z,7.10
2022-09-12T19:37:05.186Z,7.10
2022-09-12T19:38:37.358Z,6.77
2022-09-12T19:40:09.361Z,7.10
2022-09-12T19:41:41.203Z,7.03
2022-09-12T19:43:12.849Z,6.43
2022-09-12T19:44:44.595Z,6.03
2022-09-12T19:46:18.265Z,6.47
2022-09-12T19:47:50.042Z,6.17
2022-09-12T19:49:21.663Z,6.00
2022-09-12T19:50:53.458Z,6.17
2022-09-12T19:52:27.590Z,6.20
2022-09-12T19:53:59.255Z,5.70
2022-09-12T19:55:30.991Z,6.20
2022-09-12T19:57:03.059Z,6.13
2022-09-12T19:58:40.934Z,6.07
2022-09-12T20:00:13.016Z,6.27
2022-09-12T20:01:44.730Z,5.87
2022-09-12T20:03:16.511Z,6.00
2022-09-12T20:04:48.306Z,5.93
2022-09-12T20:06:20.428Z,6.10
2022-09-12T20:07:52.116Z,6.50
2022-09-12T20:09:23.893Z,6.03
2022-09-12T20:10:57.192Z,6.20
2022-09-12T20:12:28.932Z,6.33
2022-09-12T20:14:00.655Z,6.20
2022-09-12T20:15:32.321Z,5.87
2022-09-12T20:17:04.019Z,6.20
2022-09-12T20:18:36.018Z,6.50
2022-09-12T20:20:11.934Z,6.43
2022-09-12T20:21:43.626Z,6.20
2022-09-12T20:23:15.255Z,6.00
2022-09-12T20:24:46.898Z,5.53
2022-09-12T20:26:20.088Z,6.27
2022-09-12T20:27:53.385Z,7.00
2022-09-12T20:29:26.678Z,6.37
2022-09-12T20:31:20.458Z,6.60
2022-09-12T20:32:52.123Z,6.83
2022-09-12T20:34:23.785Z,7.17
2022-09-12T20:36:01.879Z,7.20
2022-09-12T20:37:33.578Z,6.60
2022-09-12T20:39:05.252Z,7.27
2022-09-12T20:40:36.893Z,7.60
2022-09-12T20:42:08.632Z,6.57
2022-09-12T20:43:40.820Z,7.13
2022-09-12T20:45:12.476Z,7.20
2022-09-12T20:46:44.183Z,7.03
2022-09-12T20:48:15.939Z,7.00
2022-09-12T20:49:47.616Z,7.67
2022-09-12T20:51:20.745Z,8.47
2022-09-12T20:52:52.460Z,8.00
2022-09-12T20:54:24.772Z,7.70
2022-09-12T20:55:56.620Z,7.87
2022-09-12T20:57:28.673Z,7.60
2022-09-12T20:59:00.962Z,8.07
2022-09-12T21:00:32.577Z,8.53
2022-09-12T21:02:04.340Z,8.23
2022-09-12T21:03:40.186Z,8.80
2022-09-12T21:05:11.837Z,7.83
2022-09-12T21:06:44.481Z,8.60
2022-09-12T21:08:16.158Z,7.53
2022-09-12T21:09:47.802Z,8.27
2022-09-12T21:11:20.467Z,8.30
2022-09-12T21:12:55.022Z,7.90
2022-09-12T21:14:26.710Z,8.77
2022-09-12T21:16:03.432Z,7.90
2022-09-12T21:17:35.344Z,8.20
2022-09-12T21:19:07.108Z,7.43